createdAt,value
2018-07-24T00:01:07.031Z,79.59
2018-07-24T00:03:34.125Z,80.48
2018-07-24T00:06:01.269Z,82.07
2018-07-24T00:08:28.308Z,82.06
2018-07-24T00:10:55.539Z,82.84
2018-07-24T00:13:22.643Z,79.53
2018-07-24T00:15:49.710Z,79.75
2018-07-24T00:18:19.770Z,79.17
2018-07-24T00:20:46.837Z,81.39
2018-07-24T00:23:16.890Z,82.40
2018-07-24T00:25:46.920Z,83.93
2018-07-24T00:28:15.041Z,84.23
2018-07-24T00:30:44.070Z,83.14
2018-07-24T00:33:11.092Z,80.31
2018-07-24T00:35:43.252Z,81.73
2018-07-24T00:38:13.436Z,82.50
2018-07-24T00:40:41.590Z,84.46
2018-07-24T00:43:08.982Z,84.24
2018-07-24T00:45:42.405Z,83.64
2018-07-24T00:48:23.880Z,83.43
2018-07-24T00:50:55.339Z,83.20
2018-07-24T00:53:25.414Z,81.63
2018-07-24T00:55:58.637Z,80.94
2018-07-24T00:58:32.072Z,83.94
2018-07-24T01:00:59.088Z,84.52
2018-07-24T01:03:32.381Z,81.65
2018-07-24T01:06:02.484Z,83.86
2018-07-24T01:08:30.750Z,84.74
2018-07-24T01:11:00.840Z,81.67
2018-07-24T01:13:28.513Z,85.52
2018-07-24T01:15:55.552Z,85.41
2018-07-24T01:18:25.623Z,86.31
2018-07-24T01:20:53.757Z,85.73
2018-07-24T01:23:20.819Z,86.59
2018-07-24T01:25:47.915Z,84.11
2018-07-24T01:28:15.082Z,82.30
2018-07-24T01:30:43.127Z,84.77
2018-07-24T01:33:11.080Z,85.49
2018-07-24T01:35:38.200Z,83.51
2018-07-24T01:38:06.012Z,86.41
2018-07-24T01:40:33.123Z,86.57
2018-07-24T01:43:00.244Z,83.57
2018-07-24T01:45:27.245Z,86.12
2018-07-24T01:47:54.820Z,85.39
2018-07-24T01:50:21.980Z,82.72
2018-07-24T01:52:49.071Z,84.02
2018-07-24T01:55:21.867Z,84.06
2018-07-24T01:57:49.626Z,83.51
2018-07-24T02:00:17.560Z,84.58
2018-07-24T02:02:48.219Z,82.21
2018-07-24T02:05:18.344Z,83.42
2018-07-24T02:07:45.357Z,85.87
2018-07-24T02:10:12.372Z,87.82
2018-07-24T02:12:39.486Z,88.04
2018-07-24T02:15:08.659Z,87.06
2018-07-24T02:17:40.618Z,87.87
2018-07-24T02:20:08.541Z,87.52
2018-07-24T02:22:35.650Z,88.23
2018-07-24T02:25:06.000Z,89.29
2018-07-24T02:27:33.774Z,89.86
2018-07-24T02:30:00.852Z,88.66
2018-07-24T02:32:28.988Z,88.42
2018-07-24T02:34:57.643Z,87.99
2018-07-24T02:37:25.159Z,87.10
2018-07-24T02:39:54.300Z,87.64
2018-07-24T02:42:27.699Z,88.78
2018-07-24T02:44:55.133Z,88.78
2018-07-24T02:47:24.204Z,87.46
2018-07-24T02:49:54.392Z,87.42
2018-07-24T02:52:24.440Z,87.84
2018-07-24T02:54:51.613Z,87.56
2018-07-24T02:57:23.424Z,87.19
2018-07-24T02:59:50.466Z,84.87
2018-07-24T03:02:20.510Z,86.32
2018-07-24T03:04:52.598Z,86.80
2018-07-24T03:07:20.566Z,87.24
2018-07-24T03:09:47.616Z,86.57
2018-07-24T03:12:14.690Z,84.77
2018-07-24T03:14:41.776Z,87.39
2018-07-24T03:17:12.739Z,88.67
2018-07-24T03:19:39.833Z,89.02
2018-07-24T03:22:11.098Z,89.74
2018-07-24T03:24:43.136Z,89.05
2018-07-24T03:27:12.337Z,89.10
2018-07-24T03:29:40.101Z,85.92
2018-07-24T03:32:07.145Z,84.50
2018-07-24T03:34:34.221Z,86.61
2018-07-24T03:37:10.733Z,88.15
2018-07-24T03:39:38.634Z,87.76
2018-07-24T03:42:06.711Z,87.45
2018-07-24T03:44:34.635Z,88.91
2018-07-24T03:47:05.470Z,89.74
2018-07-24T03:49:35.142Z,90.70
2018-07-24T03:52:03.121Z,88.82
2018-07-24T03:54:30.224Z,86.60
2018-07-24T03:56:57.358Z,85.68
2018-07-24T03:59:25.139Z,85.49
2018-07-24T04:01:53.121Z,87.08
2018-07-24T04:04:22.156Z,85.34
2018-07-24T04:06:49.274Z,86.54
2018-07-24T04:09:20.188Z,86.67
2018-07-24T04:11:51.475Z,87.73
2018-07-24T04:14:24.596Z,88.53
2018-07-24T04:16:51.651Z,89.15
2018-07-24T04:19:18.666Z,89.24
2018-07-24T04:21:46.727Z,88.35
2018-07-24T04:24:18.709Z,88.73
2018-07-24T04:26:47.743Z,88.19
2018-07-24T04:29:18.924Z,87.47
2018-07-24T04:31:45.969Z,86.93
2018-07-24T04:34:14.064Z,85.02
2018-07-24T04:36:42.183Z,84.00
2018-07-24T04:39:12.353Z,83.62
2018-07-24T04:41:41.164Z,83.44
2018-07-24T04:44:08.325Z,83.29
2018-07-24T04:46:38.861Z,82.73
2018-07-24T04:49:06.656Z,81.48
2018-07-24T04:51:35.792Z,82.68
2018-07-24T04:54:05.896Z,80.38
2018-07-24T04:56:32.993Z,78.78
2018-07-24T04:59:00.175Z,76.02
2018-07-24T05:01:27.295Z,74.79
2018-07-24T05:03:54.519Z,75.28
2018-07-24T05:06:22.612Z,74.46
2018-07-24T05:08:50.673Z,75.73
2018-07-24T05:11:17.696Z,78.58
2018-07-24T05:13:46.655Z,79.39
2018-07-24T05:16:14.044Z,78.55
2018-07-24T05:18:41.670Z,79.82
2018-07-24T05:21:11.952Z,79.72
2018-07-24T05:23:42.051Z,78.21
2018-07-24T05:26:12.103Z,79.09
2018-07-24T05:28:39.202Z,80.13
2018-07-24T05:31:06.258Z,80.75
2018-07-24T05:33:33.325Z,77.48
2018-07-24T05:36:10.172Z,78.19
2018-07-24T05:38:39.300Z,77.52
2018-07-24T05:41:07.265Z,77.14
2018-07-24T05:43:37.402Z,78.47
2018-07-24T05:46:06.131Z,78.54
2018-07-24T05:48:33.210Z,77.72
2018-07-24T05:51:00.323Z,78.20
2018-07-24T05:53:33.675Z,75.44
2018-07-24T05:56:01.758Z,77.64
2018-07-24T05:58:29.755Z,76.78
2018-07-24T06:00:57.843Z,76.17
2018-07-24T06:03:25.009Z,76.81
2018-07-24T06:05:55.289Z,76.11
2018-07-24T06:08:26.896Z,76.47
2018-07-24T06:10:53.981Z,76.35
2018-07-24T06:13:21.089Z,75.25
2018-07-24T06:15:57.732Z,73.78
2018-07-24T06:18:25.180Z,73.47
2018-07-24T06:20:55.262Z,72.78
2018-07-24T06:23:26.511Z,74.50
2018-07-24T06:25:59.977Z,73.43
2018-07-24T06:28:33.364Z,74.83
2018-07-24T06:31:04.799Z,73.37
2018-07-24T06:33:35.842Z,73.05
2018-07-24T06:36:02.982Z,72.91
2018-07-24T06:38:30.065Z,72.16
2018-07-24T06:41:09.195Z,71.83
2018-07-24T06:43:38.294Z,70.74
2018-07-24T06:46:15.093Z,69.08
2018-07-24T06:48:51.900Z,68.86
2018-07-24T06:51:18.957Z,69.40
2018-07-24T06:53:46.084Z,69.82
2018-07-24T06:56:14.231Z,69.33
2018-07-24T06:58:42.295Z,68.38
2018-07-24T07:01:09.349Z,66.75
2018-07-24T07:03:36.456Z,65.97
2018-07-24T07:06:03.620Z,64.59
2018-07-24T07:08:30.676Z,65.69
2018-07-24T07:10:57.783Z,63.84
2018-07-24T07:13:24.902Z,63.48
2018-07-24T07:15:51.921Z,63.46
2018-07-24T07:18:18.960Z,63.33
2018-07-24T07:20:50.607Z,60.69
2018-07-24T07:23:20.714Z,60.03
2018-07-24T07:25:50.808Z,60.43
2018-07-24T07:28:17.970Z,62.09
2018-07-24T07:30:45.079Z,59.61
2018-07-24T07:33:13.237Z,59.42
2018-07-24T07:35:42.265Z,58.26
2018-07-24T07:38:10.247Z,58.08
2018-07-24T07:40:40.863Z,57.24
2018-07-24T07:43:08.745Z,56.44
2018-07-24T07:45:35.819Z,56.62
2018-07-24T07:48:02.886Z,56.81
2018-07-24T07:50:31.954Z,54.97
2018-07-24T07:53:03.054Z,55.85
2018-07-24T07:55:30.291Z,54.30
2018-07-24T07:58:00.933Z,55.26
2018-07-24T08:00:32.924Z,55.42
2018-07-24T08:03:00.022Z,57.80
2018-07-24T08:05:27.154Z,54.92
2018-07-24T08:07:54.287Z,53.92
2018-07-24T08:10:23.337Z,53.99
2018-07-24T08:12:50.404Z,53.30
2018-07-24T08:15:18.521Z,54.23
2018-07-24T08:17:47.349Z,52.44
2018-07-24T08:20:15.330Z,53.35
2018-07-24T08:22:46.251Z,51.34
2018-07-24T08:25:14.318Z,52.36
2018-07-24T08:27:41.405Z,50.85
2018-07-24T08:30:12.072Z,50.44
2018-07-24T08:32:40.815Z,52.09
2018-07-24T08:35:11.992Z,50.24
2018-07-24T08:37:41.939Z,52.59
2018-07-24T08:40:10.991Z,50.33
2018-07-24T08:42:38.269Z,49.25
2018-07-24T08:45:05.804Z,49.90
2018-07-24T08:47:32.918Z,49.10
2018-07-24T08:49:59.989Z,49.11
2018-07-24T08:52:27.127Z,48.95
2018-07-24T08:54:57.426Z,47.35
2018-07-24T08:57:24.292Z,48.60
2018-07-24T08:59:52.391Z,46.58
2018-07-24T09:02:20.363Z,46.32
2018-07-24T09:04:47.415Z,47.19
2018-07-24T09:07:14.517Z,44.12
2018-07-24T09:09:41.609Z,43.62
2018-07-24T09:12:08.758Z,43.49
2018-07-24T09:14:35.987Z,44.15
2018-07-24T09:17:06.020Z,44.31
2018-07-24T09:19:33.196Z,44.38
2018-07-24T09:22:00.373Z,43.93
2018-07-24T09:24:28.317Z,44.42
2018-07-24T09:26:55.454Z,44.53
2018-07-24T09:29:23.386Z,44.71
2018-07-24T09:31:50.474Z,45.73
2018-07-24T09:34:19.332Z,44.43
2018-07-24T09:36:46.486Z,46.13
2018-07-24T09:39:13.628Z,44.93
2018-07-24T09:41:43.917Z,45.35
2018-07-24T09:44:11.881Z,44.91
2018-07-24T09:46:38.943Z,45.41
2018-07-24T09:49:06.010Z,44.48
2018-07-24T09:51:36.284Z,44.67
2018-07-24T09:54:04.502Z,42.29
2018-07-24T09:56:32.226Z,42.97
2018-07-24T09:59:02.329Z,44.30
2018-07-24T10:01:33.254Z,40.60
2018-07-24T10:04:00.884Z,40.06
2018-07-24T10:06:33.285Z,41.59
2018-07-24T10:09:05.332Z,39.98
2018-07-24T10:11:35.375Z,41.09
2018-07-24T10:14:02.530Z,41.39
2018-07-24T10:16:30.006Z,41.14
2018-07-24T10:19:01.248Z,43.73
2018-07-24T10:21:28.909Z,42.74
2018-07-24T10:23:58.071Z,39.78
2018-07-24T10:26:25.964Z,41.28
2018-07-24T10:28:55.241Z,39.25
2018-07-24T10:31:22.413Z,39.95
2018-07-24T10:33:49.491Z,37.34
2018-07-24T10:36:16.564Z,38.21
2018-07-24T10:38:43.638Z,39.16
2018-07-24T10:41:10.755Z,37.28
2018-07-24T10:43:37.893Z,39.66
2018-07-24T10:46:05.091Z,39.64
2018-07-24T10:48:34.895Z,38.43
2018-07-24T10:51:02.889Z,39.07
2018-07-24T10:53:33.435Z,40.57
2018-07-24T10:56:01.567Z,39.53
2018-07-24T10:58:28.660Z,43.04
2018-07-24T11:00:55.916Z,40.33
2018-07-24T11:03:23.151Z,39.63
2018-07-24T11:05:51.109Z,41.27
2018-07-24T11:08:25.295Z,39.12
2018-07-24T11:10:53.461Z,39.64
2018-07-24T11:13:20.455Z,40.96
2018-07-24T11:15:47.537Z,41.78
2018-07-24T11:18:14.645Z,36.90
2018-07-24T11:20:42.509Z,37.75
2018-07-24T11:23:10.816Z,36.90
2018-07-24T11:25:40.833Z,37.34
2018-07-24T11:28:07.929Z,38.81
2018-07-24T11:30:36.976Z,37.80
2018-07-24T11:33:04.146Z,35.43
2018-07-24T11:35:31.389Z,37.12
2018-07-24T11:38:00.487Z,37.25
2018-07-24T11:40:27.604Z,36.09
2018-07-24T11:42:54.781Z,34.16
2018-07-24T11:45:23.949Z,33.17
2018-07-24T11:47:51.923Z,32.94
2018-07-24T11:50:22.137Z,31.66
2018-07-24T11:52:51.052Z,32.61
2018-07-24T11:55:21.109Z,33.51
2018-07-24T11:57:51.264Z,34.33
2018-07-24T12:00:18.321Z,33.18
2018-07-24T12:02:45.397Z,33.33
2018-07-24T12:05:14.647Z,32.97
2018-07-24T12:07:41.749Z,34.68
2018-07-24T12:10:08.862Z,32.71
2018-07-24T12:12:37.141Z,34.44
2018-07-24T12:15:04.869Z,33.24
2018-07-24T12:17:32.452Z,32.88
2018-07-24T12:19:59.631Z,34.16
2018-07-24T12:22:27.751Z,34.79
2018-07-24T12:25:06.541Z,33.65
2018-07-24T12:27:39.967Z,34.70
2018-07-24T12:30:08.108Z,32.75
2018-07-24T12:32:35.971Z,33.92
2018-07-24T12:35:07.609Z,32.54
2018-07-24T12:37:34.789Z,32.77
2018-07-24T12:40:01.966Z,32.33
2018-07-24T12:42:29.106Z,34.53
2018-07-24T12:45:00.942Z,32.78
2018-07-24T12:47:29.005Z,31.96
2018-07-24T12:49:59.915Z,34.39
2018-07-24T12:52:28.985Z,29.33
2018-07-24T12:54:59.028Z,31.29
2018-07-24T12:57:26.301Z,30.85
2018-07-24T12:59:54.110Z,32.82
2018-07-24T13:02:21.354Z,31.47
2018-07-24T13:04:48.528Z,30.18
2018-07-24T13:07:15.713Z,30.53
2018-07-24T13:09:42.939Z,32.45
2018-07-24T13:12:11.122Z,32.05
2018-07-24T13:14:38.981Z,32.94
2018-07-24T13:17:06.203Z,34.60
2018-07-24T13:19:33.517Z,32.22
2018-07-24T13:22:00.748Z,33.47
2018-07-24T13:24:27.845Z,32.52
2018-07-24T13:26:59.284Z,30.59
2018-07-24T13:29:27.063Z,32.15
2018-07-24T13:31:54.395Z,29.63
2018-07-24T13:34:21.297Z,31.51
2018-07-24T13:36:48.479Z,31.28
2018-07-24T13:39:15.593Z,28.67
2018-07-24T13:41:42.744Z,29.08
2018-07-24T13:44:10.034Z,31.32
2018-07-24T13:46:40.158Z,32.05
2018-07-24T13:49:09.079Z,31.85
2018-07-24T13:51:37.107Z,29.18
2018-07-24T13:54:04.240Z,31.03
2018-07-24T13:56:31.316Z,30.58
2018-07-24T13:58:59.450Z,32.32
2018-07-24T14:01:26.553Z,32.84
2018-07-24T14:03:55.637Z,31.62
2018-07-24T14:06:24.507Z,30.29
2018-07-24T14:08:51.702Z,32.11
2018-07-24T14:11:18.847Z,32.01
2018-07-24T14:13:45.933Z,32.30
2018-07-24T14:16:13.096Z,30.43
2018-07-24T14:18:40.189Z,29.78
2018-07-24T14:21:07.550Z,29.54
2018-07-24T14:23:34.631Z,29.74
2018-07-24T14:26:02.014Z,29.66
2018-07-24T14:28:29.071Z,29.84
2018-07-24T14:30:56.193Z,30.34
2018-07-24T14:33:23.371Z,30.84
2018-07-24T14:35:50.594Z,29.87
2018-07-24T14:38:17.783Z,31.07
2018-07-24T14:40:44.908Z,29.63
2018-07-24T14:43:13.128Z,28.89
2018-07-24T14:45:41.081Z,32.49
2018-07-24T14:48:08.137Z,32.46
2018-07-24T14:50:35.996Z,29.73
2018-07-24T14:53:03.104Z,30.50
2018-07-24T14:55:30.194Z,30.19
2018-07-24T14:57:57.284Z,28.65
2018-07-24T15:00:24.681Z,28.65
2018-07-24T15:02:52.514Z,25.52
2018-07-24T15:05:19.592Z,27.53
2018-07-24T15:07:46.668Z,26.30
2018-07-24T15:10:13.877Z,27.88
2018-07-24T15:12:44.155Z,26.26
2018-07-24T15:15:14.636Z,27.29
2018-07-24T15:17:43.679Z,26.00
2018-07-24T15:20:10.860Z,26.01
2018-07-24T15:22:39.050Z,25.94
2018-07-24T15:25:06.103Z,25.21
2018-07-24T15:27:33.212Z,25.17
2018-07-24T15:30:00.285Z,23.70
2018-07-24T15:32:29.219Z,24.79
2018-07-24T15:34:56.405Z,24.58
2018-07-24T15:37:23.416Z,26.15
2018-07-24T15:39:52.266Z,27.07
2018-07-24T15:42:19.544Z,21.93
2018-07-24T15:44:46.741Z,24.23
2018-07-24T15:47:13.976Z,22.80
2018-07-24T15:49:42.154Z,21.58
2018-07-24T15:52:09.397Z,19.25
2018-07-24T15:54:36.943Z,21.04
2018-07-24T15:57:04.024Z,19.38
2018-07-24T15:59:34.280Z,19.12
2018-07-24T16:02:01.449Z,18.73
2018-07-24T16:04:28.667Z,21.25
2018-07-24T16:06:55.833Z,23.26
2018-07-24T16:09:24.782Z,21.78
2018-07-24T16:11:51.998Z,22.31
2018-07-24T16:14:20.183Z,22.45
2018-07-24T16:16:47.229Z,21.57
2018-07-24T16:19:14.351Z,21.11
2018-07-24T16:21:41.425Z,22.55
2018-07-24T16:24:08.685Z,20.13
2018-07-24T16:26:35.841Z,21.50
2018-07-24T16:29:03.234Z,21.02
2018-07-24T16:31:30.343Z,20.64
2018-07-24T16:33:58.655Z,20.36
2018-07-24T16:36:25.980Z,19.91
2018-07-24T16:38:53.103Z,20.04
2018-07-24T16:41:21.373Z,21.40
2018-07-24T16:43:48.461Z,18.25
2018-07-24T16:46:15.755Z,19.44
2018-07-24T16:48:42.970Z,19.08
2018-07-24T16:51:10.071Z,18.79
2018-07-24T16:53:37.274Z,17.43
2018-07-24T16:56:04.453Z,16.63
2018-07-24T16:58:31.698Z,17.26
2018-07-24T17:00:58.901Z,17.83
2018-07-24T17:03:26.153Z,20.48
2018-07-24T17:05:53.451Z,18.94
2018-07-24T17:08:21.295Z,18.03
2018-07-24T17:10:49.306Z,17.95
2018-07-24T17:13:16.405Z,18.16
2018-07-24T17:15:43.522Z,18.92
2018-07-24T17:18:10.695Z,19.94
2018-07-24T17:20:37.836Z,18.89
2018-07-24T17:23:12.672Z,19.21
2018-07-24T17:25:42.853Z,19.80
2018-07-24T17:28:10.014Z,19.22
2018-07-24T17:30:37.164Z,20.53
2018-07-24T17:33:04.380Z,17.63
2018-07-24T17:35:31.665Z,19.19
2018-07-24T17:37:58.732Z,19.18
2018-07-24T17:40:27.809Z,20.68
2018-07-24T17:42:55.318Z,18.13
2018-07-24T17:45:22.549Z,18.93
2018-07-24T17:47:49.682Z,20.14
2018-07-24T17:50:16.969Z,20.45
2018-07-24T17:52:45.889Z,20.03
2018-07-24T17:55:13.138Z,19.43
2018-07-24T17:57:42.287Z,19.92
2018-07-24T18:00:12.375Z,21.05
2018-07-24T18:02:39.561Z,19.16
2018-07-24T18:05:06.652Z,21.08
2018-07-24T18:07:40.925Z,21.52
2018-07-24T18:10:08.101Z,22.56
2018-07-24T18:12:38.265Z,20.94
2018-07-24T18:15:05.432Z,23.63
2018-07-24T18:17:32.559Z,27.64
2018-07-24T18:20:00.362Z,29.37
2018-07-24T18:22:28.338Z,32.97
2018-07-24T18:24:55.518Z,35.04
2018-07-24T18:27:23.334Z,35.96
2018-07-24T18:29:50.587Z,36.59
2018-07-24T18:32:18.320Z,36.91
2018-07-24T18:34:45.453Z,37.60
2018-07-24T18:37:13.569Z,39.79
2018-07-24T18:39:40.737Z,42.25
2018-07-24T18:42:07.920Z,41.16
2018-07-24T18:44:35.145Z,43.03
2018-07-24T18:47:03.257Z,43.65
2018-07-24T18:49:30.354Z,43.77
2018-07-24T18:51:58.557Z,43.44
2018-07-24T18:54:25.609Z,46.21
2018-07-24T18:56:52.976Z,47.97
2018-07-24T18:59:20.777Z,48.19
2018-07-24T19:01:55.921Z,49.69
2018-07-24T19:04:23.127Z,49.87
2018-07-24T19:06:51.221Z,51.15
2018-07-24T19:09:18.302Z,51.17
2018-07-24T19:11:45.502Z,51.35
2018-07-24T19:14:16.532Z,53.94
2018-07-24T19:16:49.971Z,54.52
2018-07-24T19:19:17.846Z,55.02
2018-07-24T19:21:44.935Z,53.19
2018-07-24T19:24:12.120Z,54.86
2018-07-24T19:26:39.493Z,54.57
2018-07-24T19:29:06.670Z,57.29
2018-07-24T19:31:33.805Z,53.79
2018-07-24T19:34:00.940Z,54.19
2018-07-24T19:36:28.688Z,52.75
2018-07-24T19:38:55.888Z,54.25
2018-07-24T19:41:23.836Z,53.89
2018-07-24T19:43:50.959Z,54.63
2018-07-24T19:46:21.200Z,53.05
2018-07-24T19:48:50.278Z,54.12
2018-07-24T19:51:17.380Z,54.21
2018-07-24T19:53:47.975Z,56.38
2018-07-24T19:56:15.114Z,55.82
2018-07-24T19:58:42.349Z,56.39
2018-07-24T20:01:09.944Z,57.48
2018-07-24T20:03:37.285Z,58.16
2018-07-24T20:06:05.288Z,57.85
2018-07-24T20:08:34.220Z,58.12
2018-07-24T20:11:01.457Z,58.05
2018-07-24T20:13:32.352Z,58.39
2018-07-24T20:15:59.619Z,58.79
2018-07-24T20:18:30.575Z,60.61
2018-07-24T20:21:00.721Z,60.56
2018-07-24T20:23:27.870Z,59.66
2018-07-24T20:25:55.828Z,58.65
2018-07-24T20:28:26.876Z,58.62
2018-07-24T20:30:54.213Z,60.81
2018-07-24T20:33:21.591Z,62.04
2018-07-24T20:35:48.729Z,58.73
2018-07-24T20:38:16.951Z,61.02
2018-07-24T20:40:48.151Z,60.11
2018-07-24T20:43:15.927Z,59.71
2018-07-24T20:45:43.000Z,59.90
2018-07-24T20:48:10.809Z,59.66
2018-07-24T20:50:39.878Z,59.50
2018-07-24T20:53:07.048Z,61.23
2018-07-24T20:55:40.319Z,61.60
2018-07-24T20:58:10.785Z,61.67
2018-07-24T21:00:40.899Z,62.62
2018-07-24T21:03:08.017Z,61.74
2018-07-24T21:05:35.153Z,63.04
2018-07-24T21:08:03.313Z,61.39
2018-07-24T21:10:31.391Z,60.15
2018-07-24T21:13:00.417Z,63.04
2018-07-24T21:15:30.557Z,63.72
2018-07-24T21:17:57.585Z,63.70
2018-07-24T21:20:24.659Z,63.95
2018-07-24T21:22:52.434Z,61.73
2018-07-24T21:25:20.335Z,63.07
2018-07-24T21:27:47.375Z,62.01
2018-07-24T21:30:14.528Z,62.24
2018-07-24T21:32:42.302Z,62.33
2018-07-24T21:35:09.469Z,62.65
2018-07-24T21:37:36.504Z,62.95
2018-07-24T21:40:05.386Z,62.21
2018-07-24T21:42:38.843Z,61.01
2018-07-24T21:45:05.825Z,62.88
2018-07-24T21:47:32.881Z,61.65
2018-07-24T21:49:59.951Z,63.49
2018-07-24T21:52:27.079Z,63.31
2018-07-24T21:55:00.271Z,62.64
2018-07-24T21:57:30.324Z,59.94
2018-07-24T21:59:58.463Z,61.47
2018-07-24T22:02:26.332Z,60.47
2018-07-24T22:04:54.500Z,59.63
2018-07-24T22:07:21.568Z,62.48
2018-07-24T22:09:52.431Z,65.28
2018-07-24T22:12:20.424Z,65.63
2018-07-24T22:14:48.318Z,63.15
2018-07-24T22:17:15.387Z,67.50
2018-07-24T22:19:51.376Z,71.76
2018-07-24T22:22:19.363Z,71.73
2018-07-24T22:24:47.382Z,73.10
2018-07-24T22:27:21.620Z,73.79
2018-07-24T22:29:56.326Z,74.52
2018-07-24T22:32:27.816Z,75.39
2018-07-24T22:34:54.943Z,74.20
2018-07-24T22:37:22.945Z,71.22
2018-07-24T22:39:50.718Z,73.37
2018-07-24T22:42:21.326Z,76.01
2018-07-24T22:44:48.507Z,76.21
2018-07-24T22:47:18.365Z,78.02
2018-07-24T22:49:52.523Z,78.66
2018-07-24T22:52:26.041Z,77.20
2018-07-24T22:54:53.129Z,75.39
2018-07-24T22:57:20.167Z,77.37
2018-07-24T22:59:47.245Z,79.90
2018-07-24T23:02:22.527Z,79.06
2018-07-24T23:04:50.359Z,77.98
2018-07-24T23:07:17.475Z,77.68
2018-07-24T23:09:52.432Z,76.74
2018-07-24T23:12:20.738Z,75.65
2018-07-24T23:14:55.283Z,74.68
2018-07-24T23:17:22.408Z,75.80
2018-07-24T23:19:52.303Z,72.43
2018-07-24T23:22:20.422Z,73.54
2018-07-24T23:24:48.560Z,73.49
2018-07-24T23:27:15.676Z,72.09
2018-07-24T23:29:42.744Z,73.15
2018-07-24T23:32:10.362Z,71.54
2018-07-24T23:34:38.451Z,73.71
2018-07-24T23:37:12.009Z,71.07
2018-07-24T23:39:39.133Z,71.61
2018-07-24T23:42:06.207Z,75.63
2018-07-24T23:44:33.290Z,77.44
2018-07-24T23:47:00.374Z,77.75
2018-07-24T23:49:27.576Z,75.96
2018-07-24T23:52:00.911Z,78.66
2018-07-24T23:54:31.417Z,75.91
2018-07-24T23:56:59.422Z,77.79
2018-07-24T23:59:26.458Z,79.56
